sensor_id;sensor_type;location;lat;lon;timestamp;P1;durP1;ratioP1;P2;durP2;ratioP2
44850;SDS011;30583;48.714;9.386;2023-12-22T00:00:44;5.18;;;1.13;;
44850;SDS011;30583;48.714;9.386;2023-12-22T00:03:12;3.58;;;0.82;;
44850;SDS011;30583;48.714;9.386;2023-12-22T00:05:39;5.18;;;1.30;;
44850;SDS011;30583;48.714;9.386;2023-12-22T00:08:04;4.10;;;0.98;;
44850;SDS011;30583;48.714;9.386;2023-12-22T00:10:30;1.85;;;0.75;;
44850;SDS011;30583;48.714;9.386;2023-12-22T00:12:56;5.30;;;1.00;;
44850;SDS011;30583;48.714;9.386;2023-12-22T00:15:21;6.60;;;1.13;;
44850;SDS011;30583;48.714;9.386;2023-12-22T00:17:47;6.82;;;1.02;;
44850;SDS011;30583;48.714;9.386;2023-12-22T00:20:12;3.70;;;1.10;;
44850;SDS011;30583;48.714;9.386;2023-12-22T00:22:39;2.90;;;0.90;;
44850;SDS011;30583;48.714;9.386;2023-12-22T00:25:05;6.35;;;1.00;;
44850;SDS011;30583;48.714;9.386;2023-12-22T00:27:32;4.97;;;1.33;;
44850;SDS011;30583;48.714;9.386;2023-12-22T00:29:58;5.05;;;1.20;;
44850;SDS011;30583;48.714;9.386;2023-12-22T00:32:24;5.80;;;1.20;;
44850;SDS011;30583;48.714;9.386;2023-12-22T00:34:49;5.78;;;1.30;;
44850;SDS011;30583;48.714;9.386;2023-12-22T00:37:15;2.97;;;1.30;;
44850;SDS011;30583;48.714;9.386;2023-12-22T00:39:41;7.38;;;1.60;;
44850;SDS011;30583;48.714;9.386;2023-12-22T00:42:06;5.78;;;1.45;;
44850;SDS011;30583;48.714;9.386;2023-12-22T00:44:32;4.82;;;1.33;;
44850;SDS011;30583;48.714;9.386;2023-12-22T00:46:58;8.98;;;1.75;;
44850;SDS011;30583;48.714;9.386;2023-12-22T00:49:23;5.45;;;1.27;;
44850;SDS011;30583;48.714;9.386;2023-12-22T00:51:49;5.78;;;1.48;;
44850;SDS011;30583;48.714;9.386;2023-12-22T00:54:14;2.67;;;1.33;;
44850;SDS011;30583;48.714;9.386;2023-12-22T00:56:40;5.32;;;1.00;;
44850;SDS011;30583;48.714;9.386;2023-12-22T00:59:05;3.78;;;0.85;;
44850;SDS011;30583;48.714;9.386;2023-12-22T01:01:31;2.72;;;1.00;;
44850;SDS011;30583;48.714;9.386;2023-12-22T01:03:56;3.85;;;1.13;;
44850;SDS011;30583;48.714;9.386;2023-12-22T01:06:22;4.03;;;1.20;;
44850;SDS011;30583;48.714;9.386;2023-12-22T01:08:48;3.88;;;0.93;;
44850;SDS011;30583;48.714;9.386;2023-12-22T01:11:15;4.50;;;1.17;;
44850;SDS011;30583;48.714;9.386;2023-12-22T01:13:41;5.82;;;1.27;;
44850;SDS011;30583;48.714;9.386;2023-12-22T01:16:07;3.28;;;0.93;;
44850;SDS011;30583;48.714;9.386;2023-12-22T01:18:33;2.22;;;0.75;;
44850;SDS011;30583;48.714;9.386;2023-12-22T01:20:59;8.07;;;1.45;;
44850;SDS011;30583;48.714;9.386;2023-12-22T01:23:24;3.22;;;1.10;;
44850;SDS011;30583;48.714;9.386;2023-12-22T01:25:50;3.95;;;1.02;;
44850;SDS011;30583;48.714;9.386;2023-12-22T01:28:16;3.10;;;0.90;;
44850;SDS011;30583;48.714;9.386;2023-12-22T01:30:41;4.00;;;1.00;;
44850;SDS011;30583;48.714;9.386;2023-12-22T01:33:07;4.10;;;1.10;;
44850;SDS011;30583;48.714;9.386;2023-12-22T01:35:32;2.85;;;1.20;;
44850;SDS011;30583;48.714;9.386;2023-12-22T01:37:58;5.43;;;1.20;;
44850;SDS011;30583;48.714;9.386;2023-12-22T01:40:24;4.45;;;1.20;;
44850;SDS011;30583;48.714;9.386;2023-12-22T01:42:50;5.53;;;1.00;;
44850;SDS011;30583;48.714;9.386;2023-12-22T01:45:16;8.50;;;1.17;;
44850;SDS011;30583;48.714;9.386;2023-12-22T01:47:41;6.47;;;1.15;;
44850;SDS011;30583;48.714;9.386;2023-12-22T01:50:08;4.22;;;1.10;;
44850;SDS011;30583;48.714;9.386;2023-12-22T01:52:36;5.32;;;1.33;;
44850;SDS011;30583;48.714;9.386;2023-12-22T01:55:05;3.13;;;1.08;;
44850;SDS011;30583;48.714;9.386;2023-12-22T01:57:31;5.40;;;1.08;;
44850;SDS011;30583;48.714;9.386;2023-12-22T01:59:59;5.45;;;1.60;;
44850;SDS011;30583;48.714;9.386;2023-12-22T02:02:25;5.88;;;1.35;;
44850;SDS011;30583;48.714;9.386;2023-12-22T02:04:52;4.90;;;1.10;;
44850;SDS011;30583;48.714;9.386;2023-12-22T02:07:18;3.10;;;1.02;;
44850;SDS011;30583;48.714;9.386;2023-12-22T02:09:44;5.15;;;0.98;;
44850;SDS011;30583;48.714;9.386;2023-12-22T02:12:10;3.03;;;0.90;;
44850;SDS011;30583;48.714;9.386;2023-12-22T02:14:35;4.43;;;0.80;;
44850;SDS011;30583;48.714;9.386;2023-12-22T02:17:02;3.10;;;0.68;;
44850;SDS011;30583;48.714;9.386;2023-12-22T02:22:09;2.33;;;0.68;;
44850;SDS011;30583;48.714;9.386;2023-12-22T02:24:36;3.35;;;1.00;;
44850;SDS011;30583;48.714;9.386;2023-12-22T02:27:07;2.38;;;0.63;;
44850;SDS011;30583;48.714;9.386;2023-12-22T02:29:46;4.05;;;1.05;;
44850;SDS011;30583;48.714;9.386;2023-12-22T02:32:17;2.75;;;0.70;;
44850;SDS011;30583;48.714;9.386;2023-12-22T02:34:49;2.38;;;0.82;;
44850;SDS011;30583;48.714;9.386;2023-12-22T02:37:17;2.80;;;0.88;;
44850;SDS011;30583;48.714;9.386;2023-12-22T02:39:44;2.65;;;0.73;;
44850;SDS011;30583;48.714;9.386;2023-12-22T02:42:10;2.85;;;0.90;;
44850;SDS011;30583;48.714;9.386;2023-12-22T02:44:36;1.77;;;0.70;;
44850;SDS011;30583;48.714;9.386;2023-12-22T02:47:03;2.83;;;0.85;;
44850;SDS011;30583;48.714;9.386;2023-12-22T02:49:28;3.53;;;0.85;;
44850;SDS011;30583;48.714;9.386;2023-12-22T02:51:54;1.67;;;0.80;;
44850;SDS011;30583;48.714;9.386;2023-12-22T02:54:20;5.57;;;1.10;;
44850;SDS011;30583;48.714;9.386;2023-12-22T02:56:46;3.38;;;0.93;;
44850;SDS011;30583;48.714;9.386;2023-12-22T02:59:12;3.20;;;1.00;;
44850;SDS011;30583;48.714;9.386;2023-12-22T03:01:37;4.20;;;1.00;;
44850;SDS011;30583;48.714;9.386;2023-12-22T03:04:03;2.63;;;0.75;;
44850;SDS011;30583;48.714;9.386;2023-12-22T03:06:29;5.20;;;1.10;;
44850;SDS011;30583;48.714;9.386;2023-12-22T03:08:54;3.00;;;0.80;;
44850;SDS011;30583;48.714;9.386;2023-12-22T03:11:20;10.50;;;5.18;;
44850;SDS011;30583;48.714;9.386;2023-12-22T03:13:45;5.25;;;1.58;;
44850;SDS011;30583;48.714;9.386;2023-12-22T03:16:11;5.07;;;0.90;;
44850;SDS011;30583;48.714;9.386;2023-12-22T03:18:39;4.68;;;1.10;;
44850;SDS011;30583;48.714;9.386;2023-12-22T03:21:05;5.25;;;1.20;;
44850;SDS011;30583;48.714;9.386;2023-12-22T03:23:30;5.70;;;1.70;;
44850;SDS011;30583;48.714;9.386;2023-12-22T03:25:56;3.58;;;0.90;;
44850;SDS011;30583;48.714;9.386;2023-12-22T03:28:22;4.65;;;0.85;;
44850;SDS011;30583;48.714;9.386;2023-12-22T03:30:47;3.78;;;1.00;;
44850;SDS011;30583;48.714;9.386;2023-12-22T03:33:13;5.55;;;0.88;;
44850;SDS011;30583;48.714;9.386;2023-12-22T03:35:38;6.22;;;1.23;;
44850;SDS011;30583;48.714;9.386;2023-12-22T03:38:04;5.78;;;1.02;;
44850;SDS011;30583;48.714;9.386;2023-12-22T03:40:29;5.40;;;0.90;;
44850;SDS011;30583;48.714;9.386;2023-12-22T03:42:55;3.58;;;1.13;;
44850;SDS011;30583;48.714;9.386;2023-12-22T03:45:21;4.53;;;1.00;;
44850;SDS011;30583;48.714;9.386;2023-12-22T03:47:46;6.07;;;1.27;;
44850;SDS011;30583;48.714;9.386;2023-12-22T03:50:12;4.95;;;1.10;;
44850;SDS011;30583;48.714;9.386;2023-12-22T03:52:37;5.85;;;0.90;;
44850;SDS011;30583;48.714;9.386;2023-12-22T03:55:03;3.03;;;0.93;;
44850;SDS011;30583;48.714;9.386;2023-12-22T03:57:29;5.60;;;1.45;;
44850;SDS011;30583;48.714;9.386;2023-12-22T03:59:54;5.68;;;1.15;;
44850;SDS011;30583;48.714;9.386;2023-12-22T04:02:20;4.85;;;1.15;;
44850;SDS011;30583;48.714;9.386;2023-12-22T04:04:45;4.68;;;1.25;;
44850;SDS011;30583;48.714;9.386;2023-12-22T04:07:11;4.53;;;0.90;;
44850;SDS011;30583;48.714;9.386;2023-12-22T04:09:37;4.53;;;1.20;;
44850;SDS011;30583;48.714;9.386;2023-12-22T04:12:05;6.65;;;1.10;;
44850;SDS011;30583;48.714;9.386;2023-12-22T04:14:31;4.50;;;1.02;;
44850;SDS011;30583;48.714;9.386;2023-12-22T04:16:57;4.10;;;1.10;;
44850;SDS011;30583;48.714;9.386;2023-12-22T04:19:22;6.22;;;1.10;;
44850;SDS011;30583;48.714;9.386;2023-12-22T04:21:48;7.47;;;1.40;;
44850;SDS011;30583;48.714;9.386;2023-12-22T04:24:13;8.95;;;1.60;;
44850;SDS011;30583;48.714;9.386;2023-12-22T04:26:39;8.57;;;1.30;;
44850;SDS011;30583;48.714;9.386;2023-12-22T04:29:05;8.05;;;1.27;;
44850;SDS011;30583;48.714;9.386;2023-12-22T04:31:30;7.63;;;1.30;;
44850;SDS011;30583;48.714;9.386;2023-12-22T04:33:56;7.55;;;1.40;;
44850;SDS011;30583;48.714;9.386;2023-12-22T04:36:21;6.88;;;2.55;;
44850;SDS011;30583;48.714;9.386;2023-12-22T04:38:47;8.13;;;2.28;;
44850;SDS011;30583;48.714;9.386;2023-12-22T04:41:12;5.22;;;0.98;;
44850;SDS011;30583;48.714;9.386;2023-12-22T04:43:38;12.55;;;1.98;;
44850;SDS011;30583;48.714;9.386;2023-12-22T04:46:03;6.88;;;1.30;;
44850;SDS011;30583;48.714;9.386;2023-12-22T04:48:29;4.13;;;1.00;;
44850;SDS011;30583;48.714;9.386;2023-12-22T04:50:55;3.15;;;0.90;;
44850;SDS011;30583;48.714;9.386;2023-12-22T04:53:20;4.60;;;1.33;;
44850;SDS011;30583;48.714;9.386;2023-12-22T04:55:46;5.72;;;1.40;;
44850;SDS011;30583;48.714;9.386;2023-12-22T04:58:11;4.13;;;1.13;;
44850;SDS011;30583;48.714;9.386;2023-12-22T05:00:37;5.40;;;1.35;;
44850;SDS011;30583;48.714;9.386;2023-12-22T05:03:03;12.27;;;4.38;;
44850;SDS011;30583;48.714;9.386;2023-12-22T05:05:29;5.82;;;1.88;;
44850;SDS011;30583;48.714;9.386;2023-12-22T05:07:54;5.20;;;1.40;;
44850;SDS011;30583;48.714;9.386;2023-12-22T05:10:20;3.80;;;1.13;;
44850;SDS011;30583;48.714;9.386;2023-12-22T05:12:45;7.07;;;1.40;;
44850;SDS011;30583;48.714;9.386;2023-12-22T05:15:11;2.60;;;0.90;;
44850;SDS011;30583;48.714;9.386;2023-12-22T05:17:36;2.90;;;1.00;;
44850;SDS011;30583;48.714;9.386;2023-12-22T05:20:02;3.85;;;1.17;;
44850;SDS011;30583;48.714;9.386;2023-12-22T05:22:28;4.68;;;1.00;;
44850;SDS011;30583;48.714;9.386;2023-12-22T05:24:57;4.53;;;1.45;;
44850;SDS011;30583;48.714;9.386;2023-12-22T05:27:23;8.48;;;1.13;;
44850;SDS011;30583;48.714;9.386;2023-12-22T05:29:51;9.65;;;1.33;;
44850;SDS011;30583;48.714;9.386;2023-12-22T05:32:17;4.65;;;0.93;;
44850;SDS011;30583;48.714;9.386;2023-12-22T05:34:42;4.53;;;1.05;;
44850;SDS011;30583;48.714;9.386;2023-12-22T05:37:08;7.75;;;2.00;;
44850;SDS011;30583;48.714;9.386;2023-12-22T05:39:33;11.73;;;1.98;;
44850;SDS011;30583;48.714;9.386;2023-12-22T05:41:59;4.30;;;1.17;;
44850;SDS011;30583;48.714;9.386;2023-12-22T05:44:25;11.57;;;1.70;;
44850;SDS011;30583;48.714;9.386;2023-12-22T05:46:54;4.82;;;1.30;;
44850;SDS011;30583;48.714;9.386;2023-12-22T05:49:20;9.73;;;2.38;;
44850;SDS011;30583;48.714;9.386;2023-12-22T05:51:46;5.78;;;1.38;;
44850;SDS011;30583;48.714;9.386;2023-12-22T05:54:11;11.30;;;1.60;;
44850;SDS011;30583;48.714;9.386;2023-12-22T05:56:37;9.35;;;1.90;;
44850;SDS011;30583;48.714;9.386;2023-12-22T05:59:02;6.35;;;1.40;;
44850;SDS011;30583;48.714;9.386;2023-12-22T06:01:28;7.45;;;2.80;;
44850;SDS011;30583;48.714;9.386;2023-12-22T06:03:54;8.13;;;1.55;;
44850;SDS011;30583;48.714;9.386;2023-12-22T06:06:20;8.35;;;1.85;;
44850;SDS011;30583;48.714;9.386;2023-12-22T06:08:45;10.20;;;2.20;;
44850;SDS011;30583;48.714;9.386;2023-12-22T06:11:11;10.15;;;2.05;;
44850;SDS011;30583;48.714;9.386;2023-12-22T06:13:37;13.20;;;2.13;;
44850;SDS011;30583;48.714;9.386;2023-12-22T06:16:03;7.63;;;1.70;;
44850;SDS011;30583;48.714;9.386;2023-12-22T06:18:29;8.85;;;1.90;;
44850;SDS011;30583;48.714;9.386;2023-12-22T06:20:54;9.55;;;1.52;;
44850;SDS011;30583;48.714;9.386;2023-12-22T06:23:20;8.30;;;1.70;;
44850;SDS011;30583;48.714;9.386;2023-12-22T06:25:45;10.35;;;1.95;;
44850;SDS011;30583;48.714;9.386;2023-12-22T06:28:11;9.32;;;1.70;;
44850;SDS011;30583;48.714;9.386;2023-12-22T06:30:37;12.63;;;1.90;;
44850;SDS011;30583;48.714;9.386;2023-12-22T06:33:03;10.90;;;2.28;;
44850;SDS011;30583;48.714;9.386;2023-12-22T06:35:29;9.95;;;1.80;;
44850;SDS011;30583;48.714;9.386;2023-12-22T06:37:56;12.13;;;2.00;;
44850;SDS011;30583;48.714;9.386;2023-12-22T06:40:26;11.38;;;2.28;;
44850;SDS011;30583;48.714;9.386;2023-12-22T06:42:51;12.52;;;1.80;;
44850;SDS011;30583;48.714;9.386;2023-12-22T06:45:17;5.15;;;1.80;;
44850;SDS011;30583;48.714;9.386;2023-12-22T06:47:42;6.15;;;1.90;;
44850;SDS011;30583;48.714;9.386;2023-12-22T06:50:08;7.07;;;1.52;;
44850;SDS011;30583;48.714;9.386;2023-12-22T06:52:34;7.50;;;1.58;;
44850;SDS011;30583;48.714;9.386;2023-12-22T06:54:59;8.07;;;1.75;;
44850;SDS011;30583;48.714;9.386;2023-12-22T06:57:25;10.82;;;2.42;;
44850;SDS011;30583;48.714;9.386;2023-12-22T06:59:50;10.95;;;1.40;;
44850;SDS011;30583;48.714;9.386;2023-12-22T07:02:16;9.50;;;1.63;;
44850;SDS011;30583;48.714;9.386;2023-12-22T07:04:41;12.52;;;1.88;;
44850;SDS011;30583;48.714;9.386;2023-12-22T07:07:27;30.10;;;3.35;;
44850;SDS011;30583;48.714;9.386;2023-12-22T07:09:55;8.40;;;1.70;;
44850;SDS011;30583;48.714;9.386;2023-12-22T07:12:20;7.28;;;1.33;;
44850;SDS011;30583;48.714;9.386;2023-12-22T07:14:46;5.75;;;1.67;;
44850;SDS011;30583;48.714;9.386;2023-12-22T07:17:11;11.73;;;2.03;;
44850;SDS011;30583;48.714;9.386;2023-12-22T07:19:37;5.53;;;1.42;;
44850;SDS011;30583;48.714;9.386;2023-12-22T07:22:03;5.45;;;1.38;;
44850;SDS011;30583;48.714;9.386;2023-12-22T07:24:29;6.47;;;1.52;;
44850;SDS011;30583;48.714;9.386;2023-12-22T07:26:55;6.38;;;1.23;;
44850;SDS011;30583;48.714;9.386;2023-12-22T07:29:20;8.40;;;1.33;;
44850;SDS011;30583;48.714;9.386;2023-12-22T07:31:46;5.65;;;1.20;;
44850;SDS011;30583;48.714;9.386;2023-12-22T07:34:11;5.32;;;1.30;;
44850;SDS011;30583;48.714;9.386;2023-12-22T07:36:37;8.02;;;2.13;;
44850;SDS011;30583;48.714;9.386;2023-12-22T07:39:02;8.10;;;1.60;;
44850;SDS011;30583;48.714;9.386;2023-12-22T07:41:28;8.95;;;1.73;;
44850;SDS011;30583;48.714;9.386;2023-12-22T07:43:54;6.28;;;1.35;;
44850;SDS011;30583;48.714;9.386;2023-12-22T07:46:19;9.38;;;1.50;;
44850;SDS011;30583;48.714;9.386;2023-12-22T07:48:47;11.35;;;1.98;;
44850;SDS011;30583;48.714;9.386;2023-12-22T07:51:12;10.65;;;1.85;;
44850;SDS011;30583;48.714;9.386;2023-12-22T07:53:38;12.20;;;2.00;;
44850;SDS011;30583;48.714;9.386;2023-12-22T07:56:04;7.47;;;2.00;;
44850;SDS011;30583;48.714;9.386;2023-12-22T07:58:30;6.97;;;1.75;;
44850;SDS011;30583;48.714;9.386;2023-12-22T08:00:57;8.38;;;1.73;;
44850;SDS011;30583;48.714;9.386;2023-12-22T08:03:23;5.93;;;1.80;;
44850;SDS011;30583;48.714;9.386;2023-12-22T08:05:49;11.40;;;3.70;;
44850;SDS011;30583;48.714;9.386;2023-12-22T08:08:14;11.27;;;3.00;;
44850;SDS011;30583;48.714;9.386;2023-12-22T08:10:40;15.65;;;7.53;;
44850;SDS011;30583;48.714;9.386;2023-12-22T08:13:06;11.02;;;3.45;;
44850;SDS011;30583;48.714;9.386;2023-12-22T08:15:32;7.57;;;1.48;;
44850;SDS011;30583;48.714;9.386;2023-12-22T08:17:57;6.38;;;1.85;;
44850;SDS011;30583;48.714;9.386;2023-12-22T08:20:23;6.57;;;1.60;;
44850;SDS011;30583;48.714;9.386;2023-12-22T08:22:49;4.97;;;1.40;;
44850;SDS011;30583;48.714;9.386;2023-12-22T08:25:15;7.97;;;1.33;;
44850;SDS011;30583;48.714;9.386;2023-12-22T08:27:44;9.32;;;1.85;;
44850;SDS011;30583;48.714;9.386;2023-12-22T08:30:10;6.60;;;1.30;;
44850;SDS011;30583;48.714;9.386;2023-12-22T08:32:36;10.45;;;2.08;;
44850;SDS011;30583;48.714;9.386;2023-12-22T08:35:02;8.63;;;1.70;;
44850;SDS011;30583;48.714;9.386;2023-12-22T08:37:29;7.07;;;1.50;;
44850;SDS011;30583;48.714;9.386;2023-12-22T08:39:55;11.15;;;5.60;;
44850;SDS011;30583;48.714;9.386;2023-12-22T08:42:21;11.07;;;2.65;;
44850;SDS011;30583;48.714;9.386;2023-12-22T08:44:47;9.27;;;2.30;;
44850;SDS011;30583;48.714;9.386;2023-12-22T08:47:13;6.88;;;1.75;;
44850;SDS011;30583;48.714;9.386;2023-12-22T08:49:38;5.10;;;1.50;;
44850;SDS011;30583;48.714;9.386;2023-12-22T08:52:04;7.95;;;1.98;;
44850;SDS011;30583;48.714;9.386;2023-12-22T08:54:30;9.40;;;2.10;;
44850;SDS011;30583;48.714;9.386;2023-12-22T08:56:56;10.75;;;2.15;;
44850;SDS011;30583;48.714;9.386;2023-12-22T08:59:21;15.85;;;2.05;;
44850;SDS011;30583;48.714;9.386;2023-12-22T09:01:47;7.95;;;1.95;;
44850;SDS011;30583;48.714;9.386;2023-12-22T09:04:12;11.95;;;2.85;;
44850;SDS011;30583;48.714;9.386;2023-12-22T09:06:38;12.90;;;2.85;;
44850;SDS011;30583;48.714;9.386;2023-12-22T09:09:04;8.05;;;1.90;;
44850;SDS011;30583;48.714;9.386;2023-12-22T09:11:31;9.85;;;1.70;;
44850;SDS011;30583;48.714;9.386;2023-12-22T09:13:56;11.02;;;1.65;;
44850;SDS011;30583;48.714;9.386;2023-12-22T09:16:22;8.10;;;1.50;;
44850;SDS011;30583;48.714;9.386;2023-12-22T09:18:48;9.57;;;1.92;;
44850;SDS011;30583;48.714;9.386;2023-12-22T09:21:15;11.63;;;1.85;;
44850;SDS011;30583;48.714;9.386;2023-12-22T09:23:42;16.08;;;2.20;;
44850;SDS011;30583;48.714;9.386;2023-12-22T09:26:12;8.57;;;1.63;;
44850;SDS011;30583;48.714;9.386;2023-12-22T09:28:39;9.00;;;2.40;;
44850;SDS011;30583;48.714;9.386;2023-12-22T09:31:06;13.88;;;3.13;;
44850;SDS011;30583;48.714;9.386;2023-12-22T09:33:32;14.18;;;2.70;;
44850;SDS011;30583;48.714;9.386;2023-12-22T09:35:57;14.48;;;2.90;;
44850;SDS011;30583;48.714;9.386;2023-12-22T09:38:23;8.93;;;1.77;;
44850;SDS011;30583;48.714;9.386;2023-12-22T09:40:52;10.65;;;2.00;;
44850;SDS011;30583;48.714;9.386;2023-12-22T09:43:18;7.45;;;1.75;;
44850;SDS011;30583;48.714;9.386;2023-12-22T09:45:54;8.52;;;1.80;;
44850;SDS011;30583;48.714;9.386;2023-12-22T09:48:20;14.48;;;3.70;;
44850;SDS011;30583;48.714;9.386;2023-12-22T09:50:52;11.60;;;2.58;;
44850;SDS011;30583;48.714;9.386;2023-12-22T09:53:19;8.77;;;1.95;;
44850;SDS011;30583;48.714;9.386;2023-12-22T09:55:45;12.57;;;2.60;;
44850;SDS011;30583;48.714;9.386;2023-12-22T09:58:12;10.23;;;2.53;;
44850;SDS011;30583;48.714;9.386;2023-12-22T10:00:42;16.40;;;4.28;;
44850;SDS011;30583;48.714;9.386;2023-12-22T10:03:09;12.50;;;2.72;;
44850;SDS011;30583;48.714;9.386;2023-12-22T10:05:36;10.43;;;2.20;;
44850;SDS011;30583;48.714;9.386;2023-12-22T10:08:02;15.63;;;2.25;;
44850;SDS011;30583;48.714;9.386;2023-12-22T10:10:30;11.70;;;3.28;;
44850;SDS011;30583;48.714;9.386;2023-12-22T10:12:58;12.85;;;2.80;;
44850;SDS011;30583;48.714;9.386;2023-12-22T10:15:24;16.33;;;2.80;;
44850;SDS011;30583;48.714;9.386;2023-12-22T10:17:51;14.35;;;3.20;;
44850;SDS011;30583;48.714;9.386;2023-12-22T10:20:17;11.50;;;2.33;;
44850;SDS011;30583;48.714;9.386;2023-12-22T10:22:43;13.73;;;3.90;;
44850;SDS011;30583;48.714;9.386;2023-12-22T10:25:08;18.75;;;5.28;;
44850;SDS011;30583;48.714;9.386;2023-12-22T10:27:35;11.52;;;2.58;;
44850;SDS011;30583;48.714;9.386;2023-12-22T10:30:02;12.63;;;2.63;;
44850;SDS011;30583;48.714;9.386;2023-12-22T10:32:28;14.60;;;2.80;;
44850;SDS011;30583;48.714;9.386;2023-12-22T10:34:55;10.90;;;2.35;;
44850;SDS011;30583;48.714;9.386;2023-12-22T10:37:22;14.00;;;2.58;;
44850;SDS011;30583;48.714;9.386;2023-12-22T10:39:51;11.88;;;2.30;;
44850;SDS011;30583;48.714;9.386;2023-12-22T10:42:20;13.85;;;2.35;;
44850;SDS011;30583;48.714;9.386;2023-12-22T10:44:46;12.98;;;2.42;;
44850;SDS011;30583;48.714;9.386;2023-12-22T10:47:13;12.82;;;2.17;;
44850;SDS011;30583;48.714;9.386;2023-12-22T10:49:38;15.95;;;2.45;;
44850;SDS011;30583;48.714;9.386;2023-12-22T10:52:04;16.83;;;6.00;;
44850;SDS011;30583;48.714;9.386;2023-12-22T10:54:30;13.40;;;3.17;;
44850;SDS011;30583;48.714;9.386;2023-12-22T10:56:59;16.17;;;2.70;;
44850;SDS011;30583;48.714;9.386;2023-12-22T10:59:29;12.05;;;2.00;;
44850;SDS011;30583;48.714;9.386;2023-12-22T11:01:56;10.50;;;2.13;;
44850;SDS011;30583;48.714;9.386;2023-12-22T11:04:22;10.88;;;2.38;;
44850;SDS011;30583;48.714;9.386;2023-12-22T11:06:54;11.35;;;2.15;;
44850;SDS011;30583;48.714;9.386;2023-12-22T11:09:23;12.73;;;3.05;;
44850;SDS011;30583;48.714;9.386;2023-12-22T11:11:52;11.63;;;3.00;;
44850;SDS011;30583;48.714;9.386;2023-12-22T11:14:18;12.05;;;2.30;;
44850;SDS011;30583;48.714;9.386;2023-12-22T11:16:44;12.05;;;1.90;;
44850;SDS011;30583;48.714;9.386;2023-12-22T11:19:13;9.35;;;1.70;;
44850;SDS011;30583;48.714;9.386;2023-12-22T11:21:40;14.90;;;1.83;;
44850;SDS011;30583;48.714;9.386;2023-12-22T11:24:06;10.57;;;2.20;;
44850;SDS011;30583;48.714;9.386;2023-12-22T11:26:33;10.68;;;2.15;;
44850;SDS011;30583;48.714;9.386;2023-12-22T11:28:58;6.93;;;1.80;;
44850;SDS011;30583;48.714;9.386;2023-12-22T11:31:25;9.02;;;2.47;;
44850;SDS011;30583;48.714;9.386;2023-12-22T11:33:52;8.35;;;2.67;;
44850;SDS011;30583;48.714;9.386;2023-12-22T11:36:20;9.98;;;1.67;;
44850;SDS011;30583;48.714;9.386;2023-12-22T11:38:48;10.95;;;3.25;;
44850;SDS011;30583;48.714;9.386;2023-12-22T11:41:16;6.05;;;1.80;;
44850;SDS011;30583;48.714;9.386;2023-12-22T11:43:44;5.32;;;1.40;;
44850;SDS011;30583;48.714;9.386;2023-12-22T11:46:11;4.40;;;1.40;;
44850;SDS011;30583;48.714;9.386;2023-12-22T11:48:37;8.30;;;1.65;;
44850;SDS011;30583;48.714;9.386;2023-12-22T11:51:11;5.47;;;1.17;;
44850;SDS011;30583;48.714;9.386;2023-12-22T11:53:39;3.60;;;1.20;;
44850;SDS011;30583;48.714;9.386;2023-12-22T11:56:08;4.78;;;1.10;;
44850;SDS011;30583;48.714;9.386;2023-12-22T11:58:41;7.68;;;1.60;;
44850;SDS011;30583;48.714;9.386;2023-12-22T12:01:16;4.63;;;1.27;;
44850;SDS011;30583;48.714;9.386;2023-12-22T12:03:49;3.85;;;1.30;;
44850;SDS011;30583;48.714;9.386;2023-12-22T12:08:59;4.68;;;1.50;;
44850;SDS011;30583;48.714;9.386;2023-12-22T12:14:16;8.68;;;2.65;;
44850;SDS011;30583;48.714;9.386;2023-12-22T12:17:11;4.65;;;1.63;;
44850;SDS011;30583;48.714;9.386;2023-12-22T12:19:40;7.95;;;1.60;;
44850;SDS011;30583;48.714;9.386;2023-12-22T12:22:11;5.60;;;1.73;;
44850;SDS011;30583;48.714;9.386;2023-12-22T12:24:38;4.72;;;1.50;;
44850;SDS011;30583;48.714;9.386;2023-12-22T12:27:04;6.20;;;1.33;;
44850;SDS011;30583;48.714;9.386;2023-12-22T12:29:30;5.57;;;1.40;;
44850;SDS011;30583;48.714;9.386;2023-12-22T12:32:07;6.72;;;1.80;;
44850;SDS011;30583;48.714;9.386;2023-12-22T12:34:32;6.05;;;1.42;;
44850;SDS011;30583;48.714;9.386;2023-12-22T12:36:58;5.93;;;1.45;;
44850;SDS011;30583;48.714;9.386;2023-12-22T12:39:25;6.78;;;1.80;;
44850;SDS011;30583;48.714;9.386;2023-12-22T12:41:56;5.15;;;1.58;;
44850;SDS011;30583;48.714;9.386;2023-12-22T12:44:25;6.07;;;2.65;;
44850;SDS011;30583;48.714;9.386;2023-12-22T12:46:52;5.50;;;2.85;;
44850;SDS011;30583;48.714;9.386;2023-12-22T12:49:18;4.78;;;1.27;;
44850;SDS011;30583;48.714;9.386;2023-12-22T12:51:44;3.25;;;0.88;;
44850;SDS011;30583;48.714;9.386;2023-12-22T12:54:11;6.60;;;1.60;;
44850;SDS011;30583;48.714;9.386;2023-12-22T12:56:41;1.92;;;0.80;;
44850;SDS011;30583;48.714;9.386;2023-12-22T12:59:08;2.88;;;0.88;;
44850;SDS011;30583;48.714;9.386;2023-12-22T13:01:38;2.88;;;1.00;;
44850;SDS011;30583;48.714;9.386;2023-12-22T13:04:08;3.88;;;0.98;;
44850;SDS011;30583;48.714;9.386;2023-12-22T13:06:35;2.72;;;0.77;;
44850;SDS011;30583;48.714;9.386;2023-12-22T13:09:00;4.10;;;1.27;;
44850;SDS011;30583;48.714;9.386;2023-12-22T13:11:26;4.70;;;1.00;;
44850;SDS011;30583;48.714;9.386;2023-12-22T13:13:53;4.97;;;1.30;;
44850;SDS011;30583;48.714;9.386;2023-12-22T13:16:19;3.78;;;0.95;;
44850;SDS011;30583;48.714;9.386;2023-12-22T13:18:46;2.63;;;1.00;;
44850;SDS011;30583;48.714;9.386;2023-12-22T13:21:12;4.07;;;1.00;;
44850;SDS011;30583;48.714;9.386;2023-12-22T13:23:39;3.42;;;1.23;;
44850;SDS011;30583;48.714;9.386;2023-12-22T13:26:04;1.40;;;0.70;;
44850;SDS011;30583;48.714;9.386;2023-12-22T13:28:30;3.78;;;1.27;;
44850;SDS011;30583;48.714;9.386;2023-12-22T13:30:56;2.05;;;0.73;;
44850;SDS011;30583;48.714;9.386;2023-12-22T13:33:21;4.38;;;1.02;;
44850;SDS011;30583;48.714;9.386;2023-12-22T13:35:49;2.08;;;0.73;;
44850;SDS011;30583;48.714;9.386;2023-12-22T13:38:15;3.85;;;0.82;;
44850;SDS011;30583;48.714;9.386;2023-12-22T13:40:44;3.58;;;0.60;;
44850;SDS011;30583;48.714;9.386;2023-12-22T13:43:11;2.47;;;0.52;;
44850;SDS011;30583;48.714;9.386;2023-12-22T13:45:36;1.42;;;0.60;;
44850;SDS011;30583;48.714;9.386;2023-12-22T13:48:02;0.32;;;0.30;;
44850;SDS011;30583;48.714;9.386;2023-12-22T13:50:28;0.93;;;0.60;;
44850;SDS011;30583;48.714;9.386;2023-12-22T13:52:54;1.15;;;0.57;;
44850;SDS011;30583;48.714;9.386;2023-12-22T13:55:20;1.48;;;0.50;;
44850;SDS011;30583;48.714;9.386;2023-12-22T13:57:49;0.30;;;0.25;;
44850;SDS011;30583;48.714;9.386;2023-12-22T14:00:25;0.80;;;0.40;;
44850;SDS011;30583;48.714;9.386;2023-12-22T14:02:53;0.95;;;0.40;;
44850;SDS011;30583;48.714;9.386;2023-12-22T14:05:19;6.57;;;3.65;;
44850;SDS011;30583;48.714;9.386;2023-12-22T14:07:44;0.88;;;0.30;;
44850;SDS011;30583;48.714;9.386;2023-12-22T14:10:10;1.50;;;0.30;;
44850;SDS011;30583;48.714;9.386;2023-12-22T14:12:37;1.15;;;0.30;;
44850;SDS011;30583;48.714;9.386;2023-12-22T14:15:06;1.10;;;0.82;;
44850;SDS011;30583;48.714;9.386;2023-12-22T14:17:36;1.15;;;0.50;;
44850;SDS011;30583;48.714;9.386;2023-12-22T14:20:03;0.43;;;0.30;;
44850;SDS011;30583;48.714;9.386;2023-12-22T14:22:34;0.70;;;0.40;;
44850;SDS011;30583;48.714;9.386;2023-12-22T14:25:00;0.68;;;0.38;;
44850;SDS011;30583;48.714;9.386;2023-12-22T14:27:26;2.08;;;1.15;;
44850;SDS011;30583;48.714;9.386;2023-12-22T14:29:52;2.50;;;1.17;;
44850;SDS011;30583;48.714;9.386;2023-12-22T14:32:17;1.30;;;0.90;;
44850;SDS011;30583;48.714;9.386;2023-12-22T14:34:44;0.60;;;0.30;;
44850;SDS011;30583;48.714;9.386;2023-12-22T14:37:10;1.55;;;0.50;;
44850;SDS011;30583;48.714;9.386;2023-12-22T14:39:36;0.73;;;0.30;;
44850;SDS011;30583;48.714;9.386;2023-12-22T14:42:02;2.03;;;1.02;;
44850;SDS011;30583;48.714;9.386;2023-12-22T14:44:28;0.98;;;0.50;;
44850;SDS011;30583;48.714;9.386;2023-12-22T14:46:53;4.38;;;3.42;;
44850;SDS011;30583;48.714;9.386;2023-12-22T14:49:19;2.17;;;1.42;;